createdAt,value
2023-03-06T00:03:39.063Z,-1.29
2023-03-06T00:08:42.437Z,-1.37
2023-03-06T00:13:46.097Z,-1.41
2023-03-06T00:18:49.607Z,-1.43
2023-03-06T00:23:53.063Z,-1.45
2023-03-06T00:28:56.986Z,-1.49
2023-03-06T00:34:00.387Z,-1.54
2023-03-06T00:39:04.069Z,-1.57
2023-03-06T00:44:08.002Z,-1.58
2023-03-06T00:49:11.668Z,-1.56
2023-03-06T00:54:15.261Z,-1.58
2023-03-06T00:59:18.731Z,-1.55
2023-03-06T01:04:22.268Z,-1.52
2023-03-06T01:09:25.788Z,-1.51
2023-03-06T01:14:31.375Z,-1.51
2023-03-06T01:19:34.954Z,-1.50
2023-03-06T01:24:38.703Z,-1.52
2023-03-06T01:29:42.059Z,-1.51
2023-03-06T01:34:47.770Z,-1.50
2023-03-06T01:39:51.242Z,-1.45
2023-03-06T01:45:04.722Z,-1.41
2023-03-06T01:50:11.618Z,-1.35
2023-03-06T01:55:19.274Z,-1.29
2023-03-06T02:00:25.728Z,-1.21
2023-03-06T02:05:29.521Z,-1.14
2023-03-06T02:10:33.346Z,-1.08
2023-03-06T02:15:36.775Z,-0.99
2023-03-06T02:20:45.913Z,-0.92
2023-03-06T02:25:52.669Z,-0.83
2023-03-06T02:30:57.065Z,-0.78
2023-03-06T02:36:02.729Z,-0.72
2023-03-06T02:41:08.694Z,-0.69
2023-03-06T02:46:12.402Z,-0.64
2023-03-06T02:51:16.350Z,-0.60
2023-03-06T02:56:20.445Z,-0.57
2023-03-06T03:01:23.907Z,-0.55
2023-03-06T03:06:27.525Z,-0.54
2023-03-06T03:11:31.698Z,-0.55
2023-03-06T03:16:37.535Z,-0.56
2023-03-06T03:21:42.539Z,-0.57
2023-03-06T03:26:46.076Z,-0.56
2023-03-06T03:31:51.740Z,-0.56
2023-03-06T03:36:55.872Z,-0.55
2023-03-06T03:41:59.995Z,-0.54
2023-03-06T03:47:06.051Z,-0.53
2023-03-06T03:52:09.832Z,-0.50
2023-03-06T03:57:14.575Z,-0.47
2023-03-06T04:02:21.983Z,-0.46
2023-03-06T04:07:32.455Z,-0.45
2023-03-06T04:12:37.219Z,-0.43
2023-03-06T04:17:40.880Z,-0.41
2023-03-06T04:22:47.344Z,-0.40
2023-03-06T04:27:50.962Z,-0.38
2023-03-06T04:32:55.072Z,-0.35
2023-03-06T04:38:00.024Z,-0.31
2023-03-06T04:43:06.141Z,-0.28
2023-03-06T04:48:12.285Z,-0.24
2023-03-06T04:53:16.335Z,-0.17
2023-03-06T04:58:20.201Z,-0.12
2023-03-06T05:03:23.727Z,-0.05
2023-03-06T05:08:27.083Z,-0.00
2023-03-06T05:13:30.762Z,0.05
2023-03-06T05:18:35.384Z,0.17
2023-03-06T05:23:38.996Z,0.25
2023-03-06T05:28:43.024Z,0.33
2023-03-06T05:33:46.418Z,0.37
2023-03-06T05:38:49.922Z,0.38
2023-03-06T05:43:54.319Z,0.41
2023-03-06T05:48:57.974Z,0.44
2023-03-06T05:54:01.522Z,0.47
2023-03-06T05:59:05.102Z,0.52
2023-03-06T06:04:08.511Z,0.54
2023-03-06T06:09:13.911Z,0.59
2023-03-06T06:14:17.507Z,0.63
2023-03-06T06:19:21.437Z,0.70
2023-03-06T06:24:26.259Z,0.78
2023-03-06T06:29:30.548Z,0.87
2023-03-06T06:34:34.176Z,0.99
2023-03-06T06:39:37.573Z,1.11
2023-03-06T06:44:41.265Z,1.21
2023-03-06T06:49:45.893Z,1.31
2023-03-06T06:54:49.424Z,1.40
2023-03-06T06:59:54.171Z,1.49
2023-03-06T07:05:04.280Z,1.60
2023-03-06T07:10:13.980Z,1.71
2023-03-06T07:15:18.026Z,1.82
2023-03-06T07:20:21.852Z,1.92
2023-03-06T07:25:25.516Z,2.04
2023-03-06T07:30:29.023Z,2.17
2023-03-06T07:35:32.757Z,2.31
2023-03-06T07:40:38.240Z,2.46
2023-03-06T07:45:41.960Z,2.57
2023-03-06T07:50:45.787Z,2.65
2023-03-06T07:55:49.193Z,2.74
2023-03-06T08:00:53.016Z,2.80
2023-03-06T08:06:05.644Z,2.87
2023-03-06T08:11:11.162Z,2.98
2023-03-06T08:16:15.013Z,3.06
2023-03-06T08:21:20.791Z,3.17
2023-03-06T08:26:26.282Z,3.28
2023-03-06T08:31:31.587Z,3.36
2023-03-06T08:36:35.273Z,3.47
2023-03-06T08:41:41.432Z,3.55
2023-03-06T08:46:44.912Z,3.61
2023-03-06T08:51:48.256Z,3.65
2023-03-06T08:56:51.690Z,3.70
2023-03-06T09:01:55.161Z,3.83
2023-03-06T09:07:00.801Z,3.88
2023-03-06T09:12:04.636Z,4.00
2023-03-06T09:17:08.078Z,4.11
2023-03-06T09:22:11.640Z,4.27
2023-03-06T09:27:18.174Z,4.43
2023-03-06T09:32:22.007Z,4.49
2023-03-06T09:37:25.448Z,4.60
2023-03-06T09:42:31.285Z,4.68
2023-03-06T09:47:45.221Z,4.76
2023-03-06T09:53:06.421Z,4.86
2023-03-06T09:58:16.453Z,5.05
2023-03-06T10:03:27.065Z,5.11
2023-03-06T10:08:42.667Z,5.22
2023-03-06T10:13:48.351Z,5.25
2023-03-06T10:18:52.263Z,5.23
2023-03-06T10:24:05.402Z,5.24
2023-03-06T10:29:34.205Z,5.30
2023-03-06T10:34:39.774Z,5.22
2023-03-06T10:39:43.204Z,5.23
2023-03-06T10:44:46.836Z,5.37
2023-03-06T10:49:58.545Z,5.51
2023-03-06T10:55:25.819Z,5.61
2023-03-06T11:00:35.593Z,5.53
2023-03-06T11:05:39.327Z,5.49
2023-03-06T11:10:56.590Z,5.59
2023-03-06T11:16:03.825Z,5.65
2023-03-06T11:21:25.655Z,5.68
2023-03-06T11:26:36.123Z,5.70
2023-03-06T11:31:45.859Z,5.64
2023-03-06T11:36:53.345Z,5.61
2023-03-06T11:42:04.948Z,5.61
2023-03-06T11:47:17.318Z,5.58
2023-03-06T11:52:27.008Z,5.60
2023-03-06T11:57:39.259Z,5.66
2023-03-06T12:03:13.743Z,5.67
2023-03-06T12:08:36.184Z,5.65
2023-03-06T12:13:56.289Z,5.75
2023-03-06T12:19:12.769Z,5.74
2023-03-06T12:24:51.325Z,5.83
2023-03-06T12:30:19.222Z,6.26
2023-03-06T12:35:38.559Z,6.55
2023-03-06T12:40:57.375Z,6.65
2023-03-06T12:46:22.092Z,6.44
2023-03-06T12:51:26.037Z,6.13
2023-03-06T12:56:31.327Z,5.77
2023-03-06T13:01:54.965Z,5.16
2023-03-06T13:07:18.712Z,4.33
2023-03-06T13:12:38.474Z,3.83
2023-03-06T13:17:42.018Z,3.50
2023-03-06T13:22:47.216Z,3.26
2023-03-06T13:28:02.952Z,3.04
2023-03-06T13:33:38.450Z,2.82
2023-03-06T13:39:14.927Z,2.65
2023-03-06T13:44:51.297Z,2.57
2023-03-06T13:49:55.008Z,2.53
2023-03-06T13:55:09.576Z,2.49
2023-03-06T14:00:36.789Z,2.40
2023-03-06T14:05:44.531Z,2.20
2023-03-06T14:10:57.898Z,2.08
2023-03-06T14:16:01.567Z,2.02
2023-03-06T14:21:12.638Z,1.99
2023-03-06T14:26:18.948Z,2.05
2023-03-06T14:31:24.824Z,2.14
2023-03-06T14:36:33.879Z,2.27
2023-03-06T14:41:37.914Z,2.36
2023-03-06T14:46:41.550Z,2.52
2023-03-06T14:51:47.349Z,2.91
2023-03-06T14:56:53.558Z,3.26
2023-03-06T15:02:01.733Z,3.44
2023-03-06T15:07:10.205Z,3.71
2023-03-06T15:12:35.645Z,3.89
2023-03-06T15:17:41.102Z,3.97
2023-03-06T15:22:49.930Z,3.97
2023-03-06T15:27:56.481Z,3.93
2023-03-06T15:33:18.724Z,3.88
2023-03-06T15:38:29.669Z,3.77
2023-03-06T15:43:37.174Z,3.68
2023-03-06T15:48:50.421Z,3.67
2023-03-06T15:53:59.798Z,3.59
2023-03-06T15:59:16.267Z,3.49
2023-03-06T16:04:19.722Z,3.37
2023-03-06T16:09:23.300Z,3.27
2023-03-06T16:14:27.239Z,3.18
2023-03-06T16:19:30.878Z,3.05
2023-03-06T16:24:34.242Z,2.92
2023-03-06T16:29:38.067Z,2.81
2023-03-06T16:34:41.608Z,2.66
2023-03-06T16:39:45.266Z,2.55
2023-03-06T16:44:48.657Z,2.44
2023-03-06T16:49:56.865Z,2.27
2023-03-06T16:55:00.575Z,2.18
2023-03-06T17:00:06.307Z,2.11
2023-03-06T17:05:11.511Z,2.09
2023-03-06T17:10:18.261Z,2.06
2023-03-06T17:15:21.894Z,2.05
2023-03-06T17:20:25.373Z,2.00
2023-03-06T17:25:29.129Z,1.94
2023-03-06T17:30:32.519Z,1.85
2023-03-06T17:35:36.520Z,1.76
2023-03-06T17:40:40.103Z,1.69
2023-03-06T17:45:44.842Z,1.61
2023-03-06T17:50:54.358Z,1.53
2023-03-06T17:55:58.230Z,1.54
2023-03-06T18:01:08.543Z,1.54
2023-03-06T18:06:12.301Z,1.58
2023-03-06T18:11:16.813Z,1.66
2023-03-06T18:16:23.573Z,1.71
2023-03-06T18:21:27.267Z,1.72
2023-03-06T18:26:30.968Z,1.69
2023-03-06T18:31:36.181Z,1.65
2023-03-06T18:36:41.758Z,1.63
2023-03-06T18:41:45.128Z,1.55
2023-03-06T18:46:48.595Z,1.46
2023-03-06T18:51:52.012Z,1.38
2023-03-06T18:56:55.441Z,1.30
2023-03-06T19:01:58.786Z,1.20
2023-03-06T19:07:02.197Z,1.11
2023-03-06T19:12:06.926Z,1.03
2023-03-06T19:17:10.478Z,0.96
2023-03-06T19:22:14.010Z,0.88
2023-03-06T19:27:17.516Z,0.82
2023-03-06T19:32:21.751Z,0.77
2023-03-06T19:37:25.423Z,0.73
2023-03-06T19:42:29.535Z,0.73
2023-03-06T19:47:33.290Z,0.72
2023-03-06T19:52:38.583Z,0.71
2023-03-06T19:57:42.762Z,0.69
2023-03-06T20:02:46.337Z,0.70
2023-03-06T20:07:49.777Z,0.68
2023-03-06T20:12:53.421Z,0.70
2023-03-06T20:17:57.384Z,0.69
2023-03-06T20:23:03.856Z,0.69
2023-03-06T20:28:07.350Z,0.70
2023-03-06T20:33:10.764Z,0.71
2023-03-06T20:38:14.612Z,0.70
2023-03-06T20:43:18.071Z,0.70
2023-03-06T20:48:21.661Z,0.71
2023-03-06T20:53:26.216Z,0.71
2023-03-06T20:58:31.301Z,0.73
2023-03-06T21:03:34.924Z,0.73
2023-03-06T21:08:39.148Z,0.75
2023-03-06T21:13:43.314Z,0.74
2023-03-06T21:18:47.539Z,0.73
2023-03-06T21:23:51.213Z,0.74
2023-03-06T21:28:55.890Z,0.72
2023-03-06T21:34:00.019Z,0.71
2023-03-06T21:39:05.628Z,0.71
2023-03-06T21:44:10.453Z,0.70
2023-03-06T21:49:13.996Z,0.71
2023-03-06T21:54:17.896Z,0.71
2023-03-06T21:59:21.501Z,0.71
2023-03-06T22:04:25.616Z,0.70
2023-03-06T22:09:29.470Z,0.71
2023-03-06T22:14:33.014Z,0.71
2023-03-06T22:19:36.861Z,0.70
2023-03-06T22:24:40.582Z,0.69
2023-03-06T22:29:45.195Z,0.69
2023-03-06T22:34:49.379Z,0.69
2023-03-06T22:39:52.807Z,0.70
2023-03-06T22:44:56.311Z,0.70
2023-03-06T22:49:59.834Z,0.72
2023-03-06T22:55:03.954Z,0.72
2023-03-06T23:00:10.731Z,0.71
2023-03-06T23:05:14.734Z,0.71
2023-03-06T23:10:19.000Z,0.70
2023-03-06T23:15:41.385Z,0.71
2023-03-06T23:21:06.041Z,0.69
2023-03-06T23:26:29.962Z,0.66
2023-03-06T23:31:33.976Z,0.63
2023-03-06T23:36:37.829Z,0.61
2023-03-06T23:41:41.477Z,0.59
2023-03-06T23:46:45.333Z,0.54
2023-03-06T23:51:49.031Z,0.50
2023-03-06T23:56:52.860Z,0.49
